CheckWX is a tool to help pilots better visualize weather data.  It is not intended as a substitute for an official pre-flight weather briefing.

08:54:21 UTC

KFKR METAR
Frankfort Municipal Airport
Frankfort, Indiana, USA
Current

19 mins ago

KFKR 180835Z AUTO 00000KT 1 1/4SM BR OVC008 22/20 A2996 RMK AO2 T02150197 TSNO
Observed
Jun-18 @ 08:35 UTC
Visibility
1 1/4 SM
Flight Rules
IFR
Conditions
Mist
Cloud Levels
  • Overcast at 800' AGL
Temperature
22°C / 72°F
Dewpoint
20°C / 68°F
Humidity
88%
Altimeter
29.96" Hg
Pressure
1014.52 hPa
Previous

39 mins ago

KFKR 180815Z AUTO 00000KT 1 1/4SM BR OVC008 22/20 A2996 RMK AO2 VIS 3/4V2 1/2 T02160196 TSNO
Observed
Jun-18 @ 08:15 UTC
Visibility
1 1/4 SM
Flight Rules
IFR
Conditions
Mist
Cloud Levels
  • Overcast at 800' AGL
Temperature
22°C / 72°F
Dewpoint
20°C / 68°F
Humidity
88%
Altimeter
29.96" Hg
Pressure
1014.52 hPa
Previous

59 mins ago

KFKR 180755Z AUTO 05004KT 2 1/2SM BR OVC010 22/20 A2996 RMK AO2 T02150195 TSNO
Observed
Jun-18 @ 07:55 UTC
Wind
  • 050° at 4 KTS
Visibility
2 1/2 SM
Flight Rules
IFR
Conditions
Mist
Cloud Levels
  • Overcast at 1,000' AGL
Temperature
22°C / 72°F
Dewpoint
20°C / 68°F
Humidity
88%
Altimeter
29.96" Hg
Pressure
1014.52 hPa